KAPN/APN METAR and TAF weather

Enter ICAO airport designator
Station Type Date Time Source
KAPN METAR 2018/04/20 07:54 UTC NOAA

KAPN 200754Z AUTO 33003KT 10SM CLR M02/M07 A3037 RMK AO2 SLP293 T10171067


Station Type Date Time Source
KAPN Decoded METAR 2018/04/20 07:54 UTC NOAA

ALPENA COUNTY REGIONAL AIRPORT, MI, United States (KAPN) 45-05N 083-34W 210M
Apr 20, 2018 - 03:54 AM EDT / 2018.04.20 0754 UTC
Wind: from the NNW (330 degrees) at 3 MPH (3 KT):0
Visibility: 10 mile(s):0
Sky conditions: clear
Temperature: 28.9 F (-1.7 C)
Dew Point: 19.9 F (-6.7 C)
Relative Humidity: 68%
Pressure (altimeter): 30.37 in. Hg (1028 hPa)
ob: KAPN 200754Z AUTO 33003KT 10SM CLR M02/M07 A3037 RMK AO2 SLP293 T10171067
cycle: 8

Station Type Date Time Source
KAPN TAF 2018/04/20 06:22 UTC NOAA

TAF KAPN 200520Z 2006/2106 30005KT P6SM SKC
FM201500 33008KT P6SM SKC


Example: see airport list